Main page
METAR-TAF:

METAR-TAF

Airports :

Harbin, China

Harbin Taiping International Airport

latitude: 45-45N, longitude: 126-46E, elevation: 143 m

Current weather observation

The report was made 1 hour and 1 minutes ago, at 14:00 UTC
Wind 4 kt from the Northwest
Temperature 0°C
Humidity 93%
Pressure 1019 hPa
Visibility: 4000 m
mist

METAR: ZYHB 291400Z 31002MPS 4000 BR NSC M00/M01 Q1019 NOSIG

Time: 23:01 (15:01 UTC)

Forecast

The report was made 5 hours and 35 minutes ago, at 09:26 UTC
Forecast valid from 29 at 12 UTC to 30 at 12 UTC
Wind 8 kt from the North with gusts up to 19 kt
Visibility: 6000 m
Broken clouds at a height of 2600 ft

TAF: ZYHB 290926Z 2912/3012 36004G10MPS 6000 BKN026 TX10/3006Z TNM03/21Z

Weather observations and forecasts of more than 4000 airports (METAR and TAF reports).

The available stations are represented by yellow and red dots on the map.

Hover mouse over dot to see the name of the station.

Then click to see weather observations and forecasts.

To change the map : click on the green buttons with a black cross to zoom in, on the green button with a dash to zoom out, or on the green arrows for adjacent maps.


METAR-TAF: